Svend Maersk — OYJS2 — position and weather

sailwx.info

Track history (hours):
 
Tides and Currents Weather Stations Pressure Air Temp Water Temp Dewpoint Dewpoint Depression Visibility Wind Speed Wind Dir Waves Ship Positions

Svend Maersk

Last reported at 2015-Apr-19 15:32 UTC. Time now 2015-May-06 03:23 UTC.
Position N 34°36' W 131°20'.
Warning: this ship's position is 16 days out of date.

Type: Ship (hazmat cat A). MMSI: 219791000.

Date/timePositionNaut miles runAvg speedWind from/ knotsBaromVisibWave heightAir tempDewpointWater temp
2015-Apr-19 15:32N 34°36' W 131°20'8413.8
2015-Apr-19 09:27N 33°57' W 129°50'7014.3
2015-Apr-19 04:33N 33°24' W 128°35'2914.5
2015-Apr-19 02:33N 33°10' W 128°05'5713.8
2015-Apr-18 22:26N 32°42' W 127°06'6813.9
2015-Apr-18 17:30N 32°08' W 125°56'1414.2
2015-Apr-18 16:33N 32°02' W 125°42'11414.2
2015-Apr-18 08:31N 31°04' W 123°47'1514.5
2015-Apr-18 07:31N 30°56' W 123°33'1414.6
2015-Apr-18 06:33N 30°49' W 123°19'1514.8
2015-Apr-18 05:33N 30°41' W 123°04'1914.6
2015-Apr-18 04:16N 30°31' W 122°46'1014.3
2015-Apr-18 03:33N 30°26' W 122°35'1513.9
2015-Apr-18 02:27N 30°18' W 122°20'4614.2
2015-Apr-17 23:12N 29°53' W 121°35'  
Track history (hours):
 
Tides and Currents Weather Stations Pressure Air Temp Water Temp Dewpoint Dewpoint Depression Visibility Wind Speed Wind Dir Waves Ship Positions

Svend Maersk

Last reported at 2015-Apr-19 15:32 UTC. Time now 2015-May-06 03:23 UTC.
Position N 34°36' W 131°20'.
Warning: this ship's position is 16 days out of date.

Type: Ship (hazmat cat A). MMSI: 219791000.

Date/timePositionNaut miles runAvg speedWind from/ knotsBaromVisibWave heightAir tempDewpointWater temp
2015-Apr-19 15:32N 34°36' W 131°20'8413.8
2015-Apr-19 09:27N 33°57' W 129°50'7014.3
2015-Apr-19 04:33N 33°24' W 128°35'2914.5
2015-Apr-19 02:33N 33°10' W 128°05'5713.8
2015-Apr-18 22:26N 32°42' W 127°06'6813.9
2015-Apr-18 17:30N 32°08' W 125°56'1414.2
2015-Apr-18 16:33N 32°02' W 125°42'11414.2
2015-Apr-18 08:31N 31°04' W 123°47'1514.5
2015-Apr-18 07:31N 30°56' W 123°33'1414.6
2015-Apr-18 06:33N 30°49' W 123°19'1514.8
2015-Apr-18 05:33N 30°41' W 123°04'1914.6
2015-Apr-18 04:16N 30°31' W 122°46'1014.3
2015-Apr-18 03:33N 30°26' W 122°35'1513.9
2015-Apr-18 02:27N 30°18' W 122°20'4614.2
2015-Apr-17 23:12N 29°53' W 121°35'  

Dump ship's entire track history